sensor_id;sensor_type;location;lat;lon;timestamp;P1;durP1;ratioP1;P2;durP2;ratioP2
41693;SDS011;27377;50.666;9.150;2022-11-20T00:01:04;21.65;;;14.82;;
41693;SDS011;27377;50.666;9.150;2022-11-20T00:03:37;22.30;;;14.85;;
41693;SDS011;27377;50.666;9.150;2022-11-20T00:06:03;23.05;;;14.98;;
41693;SDS011;27377;50.666;9.150;2022-11-20T00:08:30;22.08;;;15.13;;
41693;SDS011;27377;50.666;9.150;2022-11-20T00:10:55;22.43;;;15.40;;
41693;SDS011;27377;50.666;9.150;2022-11-20T00:13:21;22.27;;;15.17;;
41693;SDS011;27377;50.666;9.150;2022-11-20T00:15:47;22.65;;;15.40;;
41693;SDS011;27377;50.666;9.150;2022-11-20T00:18:13;22.75;;;15.48;;
41693;SDS011;27377;50.666;9.150;2022-11-20T00:20:38;22.47;;;14.97;;
41693;SDS011;27377;50.666;9.150;2022-11-20T00:23:04;23.17;;;15.50;;
41693;SDS011;27377;50.666;9.150;2022-11-20T00:25:30;23.13;;;15.57;;
41693;SDS011;27377;50.666;9.150;2022-11-20T00:27:56;22.77;;;15.73;;
41693;SDS011;27377;50.666;9.150;2022-11-20T00:30:21;24.27;;;16.15;;
41693;SDS011;27377;50.666;9.150;2022-11-20T00:32:47;24.83;;;16.03;;
41693;SDS011;27377;50.666;9.150;2022-11-20T00:35:12;27.90;;;17.90;;
41693;SDS011;27377;50.666;9.150;2022-11-20T00:37:38;24.90;;;16.20;;
41693;SDS011;27377;50.666;9.150;2022-11-20T00:40:04;21.63;;;14.80;;
41693;SDS011;27377;50.666;9.150;2022-11-20T00:42:30;22.98;;;15.35;;
41693;SDS011;27377;50.666;9.150;2022-11-20T00:44:57;23.35;;;15.15;;
41693;SDS011;27377;50.666;9.150;2022-11-20T00:47:23;23.50;;;16.03;;
41693;SDS011;27377;50.666;9.150;2022-11-20T00:49:48;23.67;;;15.57;;
41693;SDS011;27377;50.666;9.150;2022-11-20T00:52:14;22.77;;;15.10;;
41693;SDS011;27377;50.666;9.150;2022-11-20T00:54:39;21.47;;;14.83;;
41693;SDS011;27377;50.666;9.150;2022-11-20T00:57:05;24.07;;;15.73;;
41693;SDS011;27377;50.666;9.150;2022-11-20T00:59:30;24.58;;;15.63;;
41693;SDS011;27377;50.666;9.150;2022-11-20T01:01:56;23.45;;;16.05;;
41693;SDS011;27377;50.666;9.150;2022-11-20T01:04:21;22.92;;;15.35;;
41693;SDS011;27377;50.666;9.150;2022-11-20T01:06:47;21.55;;;14.93;;
41693;SDS011;27377;50.666;9.150;2022-11-20T01:09:13;21.83;;;14.82;;
41693;SDS011;27377;50.666;9.150;2022-11-20T01:11:40;22.95;;;14.15;;
41693;SDS011;27377;50.666;9.150;2022-11-20T01:14:09;23.10;;;14.80;;
41693;SDS011;27377;50.666;9.150;2022-11-20T01:16:37;21.03;;;14.53;;
41693;SDS011;27377;50.666;9.150;2022-11-20T01:19:06;20.60;;;14.00;;
41693;SDS011;27377;50.666;9.150;2022-11-20T01:21:35;22.37;;;15.60;;
41693;SDS011;27377;50.666;9.150;2022-11-20T01:24:03;21.00;;;14.85;;
41693;SDS011;27377;50.666;9.150;2022-11-20T01:26:31;22.05;;;14.57;;
41693;SDS011;27377;50.666;9.150;2022-11-20T01:28:58;20.88;;;14.75;;
41693;SDS011;27377;50.666;9.150;2022-11-20T01:31:25;22.10;;;14.85;;
41693;SDS011;27377;50.666;9.150;2022-11-20T01:33:54;22.85;;;15.73;;
41693;SDS011;27377;50.666;9.150;2022-11-20T01:36:22;24.80;;;16.50;;
41693;SDS011;27377;50.666;9.150;2022-11-20T01:38:53;23.17;;;16.27;;
41693;SDS011;27377;50.666;9.150;2022-11-20T01:41:20;23.35;;;15.80;;
41693;SDS011;27377;50.666;9.150;2022-11-20T01:44:05;22.10;;;14.90;;
41693;SDS011;27377;50.666;9.150;2022-11-20T01:46:35;23.10;;;15.55;;
41693;SDS011;27377;50.666;9.150;2022-11-20T01:49:04;23.17;;;15.35;;
41693;SDS011;27377;50.666;9.150;2022-11-20T01:51:39;20.48;;;14.80;;
41693;SDS011;27377;50.666;9.150;2022-11-20T01:54:10;21.20;;;14.75;;
41693;SDS011;27377;50.666;9.150;2022-11-20T01:56:40;23.80;;;15.43;;
41693;SDS011;27377;50.666;9.150;2022-11-20T01:59:10;22.88;;;15.68;;
41693;SDS011;27377;50.666;9.150;2022-11-20T02:01:38;24.95;;;16.58;;
41693;SDS011;27377;50.666;9.150;2022-11-20T02:04:04;23.83;;;15.80;;
41693;SDS011;27377;50.666;9.150;2022-11-20T02:06:32;21.10;;;15.13;;
41693;SDS011;27377;50.666;9.150;2022-11-20T02:09:05;22.80;;;15.80;;
41693;SDS011;27377;50.666;9.150;2022-11-20T02:11:32;23.38;;;15.18;;
41693;SDS011;27377;50.666;9.150;2022-11-20T02:13:58;25.87;;;16.07;;
41693;SDS011;27377;50.666;9.150;2022-11-20T02:16:29;25.23;;;17.08;;
41693;SDS011;27377;50.666;9.150;2022-11-20T02:18:57;24.75;;;16.52;;
41693;SDS011;27377;50.666;9.150;2022-11-20T02:21:34;24.30;;;16.37;;
41693;SDS011;27377;50.666;9.150;2022-11-20T02:26:42;23.85;;;15.75;;
41693;SDS011;27377;50.666;9.150;2022-11-20T02:29:09;22.92;;;15.82;;
41693;SDS011;27377;50.666;9.150;2022-11-20T02:31:36;23.40;;;16.23;;
41693;SDS011;27377;50.666;9.150;2022-11-20T02:34:03;24.35;;;16.65;;
41693;SDS011;27377;50.666;9.150;2022-11-20T02:36:28;23.35;;;15.68;;
41693;SDS011;27377;50.666;9.150;2022-11-20T02:38:58;23.48;;;15.57;;
41693;SDS011;27377;50.666;9.150;2022-11-20T02:41:45;23.35;;;15.93;;
41693;SDS011;27377;50.666;9.150;2022-11-20T02:44:10;24.15;;;15.82;;
41693;SDS011;27377;50.666;9.150;2022-11-20T02:46:39;24.00;;;15.75;;
41693;SDS011;27377;50.666;9.150;2022-11-20T02:49:05;23.08;;;15.55;;
41693;SDS011;27377;50.666;9.150;2022-11-20T02:51:30;23.50;;;16.10;;
41693;SDS011;27377;50.666;9.150;2022-11-20T02:53:57;23.52;;;15.70;;
41693;SDS011;27377;50.666;9.150;2022-11-20T02:56:23;23.70;;;15.73;;
41693;SDS011;27377;50.666;9.150;2022-11-20T02:58:49;23.55;;;15.57;;
41693;SDS011;27377;50.666;9.150;2022-11-20T03:01:14;24.57;;;15.43;;
41693;SDS011;27377;50.666;9.150;2022-11-20T03:03:43;21.73;;;15.23;;
41693;SDS011;27377;50.666;9.150;2022-11-20T03:06:09;24.10;;;16.10;;
41693;SDS011;27377;50.666;9.150;2022-11-20T03:08:34;23.33;;;15.37;;
41693;SDS011;27377;50.666;9.150;2022-11-20T03:11:04;24.63;;;16.23;;
41693;SDS011;27377;50.666;9.150;2022-11-20T03:13:31;24.77;;;16.30;;
41693;SDS011;27377;50.666;9.150;2022-11-20T03:16:07;25.65;;;16.95;;
41693;SDS011;27377;50.666;9.150;2022-11-20T03:18:38;23.80;;;16.07;;
41693;SDS011;27377;50.666;9.150;2022-11-20T03:21:05;24.95;;;16.33;;
41693;SDS011;27377;50.666;9.150;2022-11-20T03:23:31;25.85;;;16.83;;
41693;SDS011;27377;50.666;9.150;2022-11-20T03:28:57;25.98;;;16.60;;
41693;SDS011;27377;50.666;9.150;2022-11-20T03:31:27;25.67;;;16.13;;
41693;SDS011;27377;50.666;9.150;2022-11-20T03:33:55;25.40;;;16.45;;
41693;SDS011;27377;50.666;9.150;2022-11-20T03:36:25;25.02;;;16.30;;
41693;SDS011;27377;50.666;9.150;2022-11-20T03:38:53;23.20;;;15.77;;
41693;SDS011;27377;50.666;9.150;2022-11-20T03:41:24;23.92;;;15.70;;
41693;SDS011;27377;50.666;9.150;2022-11-20T03:43:52;23.67;;;15.57;;
41693;SDS011;27377;50.666;9.150;2022-11-20T03:46:19;22.75;;;15.45;;
41693;SDS011;27377;50.666;9.150;2022-11-20T03:48:45;25.13;;;16.38;;
41693;SDS011;27377;50.666;9.150;2022-11-20T03:51:16;24.35;;;16.50;;
41693;SDS011;27377;50.666;9.150;2022-11-20T03:53:47;23.97;;;15.93;;
41693;SDS011;27377;50.666;9.150;2022-11-20T03:56:14;24.48;;;16.48;;
41693;SDS011;27377;50.666;9.150;2022-11-20T03:58:41;23.70;;;15.83;;
41693;SDS011;27377;50.666;9.150;2022-11-20T04:01:17;25.08;;;16.15;;
41693;SDS011;27377;50.666;9.150;2022-11-20T04:03:45;23.52;;;15.55;;
41693;SDS011;27377;50.666;9.150;2022-11-20T04:06:15;24.30;;;16.08;;
41693;SDS011;27377;50.666;9.150;2022-11-20T04:08:45;24.73;;;16.20;;
41693;SDS011;27377;50.666;9.150;2022-11-20T04:11:15;24.33;;;15.90;;
41693;SDS011;27377;50.666;9.150;2022-11-20T04:13:47;25.13;;;16.38;;
41693;SDS011;27377;50.666;9.150;2022-11-20T04:16:17;26.03;;;17.00;;
41693;SDS011;27377;50.666;9.150;2022-11-20T04:18:43;26.67;;;16.27;;
41693;SDS011;27377;50.666;9.150;2022-11-20T04:21:09;24.73;;;16.07;;
41693;SDS011;27377;50.666;9.150;2022-11-20T04:23:35;24.93;;;16.17;;
41693;SDS011;27377;50.666;9.150;2022-11-20T04:26:04;25.52;;;17.02;;
41693;SDS011;27377;50.666;9.150;2022-11-20T04:28:35;24.38;;;16.30;;
41693;SDS011;27377;50.666;9.150;2022-11-20T04:31:05;25.65;;;16.08;;
41693;SDS011;27377;50.666;9.150;2022-11-20T04:33:51;23.83;;;16.20;;
41693;SDS011;27377;50.666;9.150;2022-11-20T04:36:18;26.27;;;16.83;;
41693;SDS011;27377;50.666;9.150;2022-11-20T04:38:51;24.35;;;16.05;;
41693;SDS011;27377;50.666;9.150;2022-11-20T04:41:21;23.58;;;15.85;;
41693;SDS011;27377;50.666;9.150;2022-11-20T04:43:49;23.00;;;16.02;;
41693;SDS011;27377;50.666;9.150;2022-11-20T04:46:16;23.58;;;16.17;;
41693;SDS011;27377;50.666;9.150;2022-11-20T04:48:43;24.45;;;16.20;;
41693;SDS011;27377;50.666;9.150;2022-11-20T04:51:09;25.13;;;15.82;;
41693;SDS011;27377;50.666;9.150;2022-11-20T04:53:35;24.77;;;16.40;;
41693;SDS011;27377;50.666;9.150;2022-11-20T04:56:05;25.17;;;16.48;;
41693;SDS011;27377;50.666;9.150;2022-11-20T04:58:32;24.50;;;15.95;;
41693;SDS011;27377;50.666;9.150;2022-11-20T05:01:01;22.90;;;15.73;;
41693;SDS011;27377;50.666;9.150;2022-11-20T05:03:31;24.23;;;16.30;;
41693;SDS011;27377;50.666;9.150;2022-11-20T05:06:00;24.00;;;16.57;;
41693;SDS011;27377;50.666;9.150;2022-11-20T05:08:29;25.92;;;16.52;;
41693;SDS011;27377;50.666;9.150;2022-11-20T05:11:02;25.05;;;16.08;;
41693;SDS011;27377;50.666;9.150;2022-11-20T05:13:29;24.25;;;16.35;;
41693;SDS011;27377;50.666;9.150;2022-11-20T05:15:55;23.57;;;16.07;;
41693;SDS011;27377;50.666;9.150;2022-11-20T05:18:20;25.63;;;16.00;;
41693;SDS011;27377;50.666;9.150;2022-11-20T05:20:46;25.13;;;16.20;;
41693;SDS011;27377;50.666;9.150;2022-11-20T05:23:11;25.73;;;17.13;;
41693;SDS011;27377;50.666;9.150;2022-11-20T05:25:37;24.00;;;16.27;;
41693;SDS011;27377;50.666;9.150;2022-11-20T05:28:03;24.50;;;16.17;;
41693;SDS011;27377;50.666;9.150;2022-11-20T05:30:28;25.67;;;17.48;;
41693;SDS011;27377;50.666;9.150;2022-11-20T05:32:54;24.27;;;16.27;;
41693;SDS011;27377;50.666;9.150;2022-11-20T05:35:19;25.13;;;16.23;;
41693;SDS011;27377;50.666;9.150;2022-11-20T05:37:45;24.87;;;16.50;;
41693;SDS011;27377;50.666;9.150;2022-11-20T05:40:10;23.17;;;16.27;;
41693;SDS011;27377;50.666;9.150;2022-11-20T05:42:36;23.73;;;15.70;;
41693;SDS011;27377;50.666;9.150;2022-11-20T05:45:03;25.20;;;16.77;;
41693;SDS011;27377;50.666;9.150;2022-11-20T05:47:32;23.85;;;16.20;;
41693;SDS011;27377;50.666;9.150;2022-11-20T05:49:59;23.88;;;16.15;;
41693;SDS011;27377;50.666;9.150;2022-11-20T05:52:24;25.20;;;16.53;;
41693;SDS011;27377;50.666;9.150;2022-11-20T05:54:53;24.10;;;15.85;;
41693;SDS011;27377;50.666;9.150;2022-11-20T05:57:18;24.43;;;16.43;;
41693;SDS011;27377;50.666;9.150;2022-11-20T05:59:44;25.43;;;16.77;;
41693;SDS011;27377;50.666;9.150;2022-11-20T06:02:10;25.63;;;16.43;;
41693;SDS011;27377;50.666;9.150;2022-11-20T06:04:35;24.42;;;16.42;;
41693;SDS011;27377;50.666;9.150;2022-11-20T06:07:01;24.42;;;16.23;;
41693;SDS011;27377;50.666;9.150;2022-11-20T06:09:26;25.52;;;16.52;;
41693;SDS011;27377;50.666;9.150;2022-11-20T06:11:52;24.53;;;16.30;;
41693;SDS011;27377;50.666;9.150;2022-11-20T06:14:17;25.93;;;16.40;;
41693;SDS011;27377;50.666;9.150;2022-11-20T06:16:43;26.23;;;16.67;;
41693;SDS011;27377;50.666;9.150;2022-11-20T06:19:08;24.73;;;16.47;;
41693;SDS011;27377;50.666;9.150;2022-11-20T06:21:34;29.73;;;16.70;;
41693;SDS011;27377;50.666;9.150;2022-11-20T06:23:59;24.73;;;16.67;;
41693;SDS011;27377;50.666;9.150;2022-11-20T06:26:26;27.67;;;17.43;;
41693;SDS011;27377;50.666;9.150;2022-11-20T06:28:52;28.75;;;18.15;;
41693;SDS011;27377;50.666;9.150;2022-11-20T06:31:21;26.25;;;16.67;;
41693;SDS011;27377;50.666;9.150;2022-11-20T06:33:48;24.55;;;16.95;;
41693;SDS011;27377;50.666;9.150;2022-11-20T06:36:15;25.70;;;16.90;;
41693;SDS011;27377;50.666;9.150;2022-11-20T06:38:42;24.05;;;16.75;;
41693;SDS011;27377;50.666;9.150;2022-11-20T06:41:11;28.43;;;18.53;;
41693;SDS011;27377;50.666;9.150;2022-11-20T06:43:42;31.63;;;20.00;;
41693;SDS011;27377;50.666;9.150;2022-11-20T06:46:09;33.50;;;21.27;;
41693;SDS011;27377;50.666;9.150;2022-11-20T06:48:35;33.63;;;21.48;;
41693;SDS011;27377;50.666;9.150;2022-11-20T06:51:02;31.23;;;20.43;;
41693;SDS011;27377;50.666;9.150;2022-11-20T06:53:32;31.38;;;20.02;;
41693;SDS011;27377;50.666;9.150;2022-11-20T06:55:58;29.95;;;19.48;;
41693;SDS011;27377;50.666;9.150;2022-11-20T06:58:26;27.77;;;18.40;;
41693;SDS011;27377;50.666;9.150;2022-11-20T07:00:52;30.50;;;18.85;;
41693;SDS011;27377;50.666;9.150;2022-11-20T07:03:18;29.17;;;18.88;;
41693;SDS011;27377;50.666;9.150;2022-11-20T07:05:44;28.40;;;18.53;;
41693;SDS011;27377;50.666;9.150;2022-11-20T07:08:11;30.83;;;19.27;;
41693;SDS011;27377;50.666;9.150;2022-11-20T07:10:37;31.77;;;20.15;;
41693;SDS011;27377;50.666;9.150;2022-11-20T07:13:03;32.28;;;20.42;;
41693;SDS011;27377;50.666;9.150;2022-11-20T07:15:29;30.73;;;19.63;;
41693;SDS011;27377;50.666;9.150;2022-11-20T07:17:54;27.97;;;19.10;;
41693;SDS011;27377;50.666;9.150;2022-11-20T07:20:20;33.73;;;19.90;;
41693;SDS011;27377;50.666;9.150;2022-11-20T07:22:46;28.95;;;19.95;;
41693;SDS011;27377;50.666;9.150;2022-11-20T07:25:11;30.90;;;19.70;;
41693;SDS011;27377;50.666;9.150;2022-11-20T07:27:37;29.40;;;19.83;;
41693;SDS011;27377;50.666;9.150;2022-11-20T07:30:03;31.17;;;19.47;;
41693;SDS011;27377;50.666;9.150;2022-11-20T07:32:29;31.17;;;21.02;;
41693;SDS011;27377;50.666;9.150;2022-11-20T07:34:54;34.80;;;22.23;;
41693;SDS011;27377;50.666;9.150;2022-11-20T07:37:20;32.00;;;21.27;;
41693;SDS011;27377;50.666;9.150;2022-11-20T07:39:45;32.95;;;21.40;;
41693;SDS011;27377;50.666;9.150;2022-11-20T07:42:11;32.83;;;21.13;;
41693;SDS011;27377;50.666;9.150;2022-11-20T07:44:37;33.45;;;21.13;;
41693;SDS011;27377;50.666;9.150;2022-11-20T07:47:03;33.53;;;21.20;;
41693;SDS011;27377;50.666;9.150;2022-11-20T07:49:28;32.85;;;21.45;;
41693;SDS011;27377;50.666;9.150;2022-11-20T07:51:54;34.97;;;22.35;;
41693;SDS011;27377;50.666;9.150;2022-11-20T07:54:20;35.83;;;22.55;;
41693;SDS011;27377;50.666;9.150;2022-11-20T07:56:46;36.97;;;22.30;;
41693;SDS011;27377;50.666;9.150;2022-11-20T07:59:12;37.40;;;22.20;;
41693;SDS011;27377;50.666;9.150;2022-11-20T08:01:41;35.80;;;23.10;;
41693;SDS011;27377;50.666;9.150;2022-11-20T08:04:07;36.13;;;22.77;;
41693;SDS011;27377;50.666;9.150;2022-11-20T08:06:34;35.40;;;22.00;;
41693;SDS011;27377;50.666;9.150;2022-11-20T08:09:00;37.55;;;22.98;;
41693;SDS011;27377;50.666;9.150;2022-11-20T08:11:26;40.37;;;23.93;;
41693;SDS011;27377;50.666;9.150;2022-11-20T08:14:10;42.65;;;24.52;;
41693;SDS011;27377;50.666;9.150;2022-11-20T08:19:05;40.22;;;24.27;;
41693;SDS011;27377;50.666;9.150;2022-11-20T08:21:31;43.20;;;25.23;;
41693;SDS011;27377;50.666;9.150;2022-11-20T08:23:57;42.27;;;25.03;;
41693;SDS011;27377;50.666;9.150;2022-11-20T08:26:23;45.50;;;26.20;;
41693;SDS011;27377;50.666;9.150;2022-11-20T08:28:52;41.50;;;25.25;;
41693;SDS011;27377;50.666;9.150;2022-11-20T08:31:19;47.97;;;27.02;;
41693;SDS011;27377;50.666;9.150;2022-11-20T08:33:45;48.00;;;27.63;;
41693;SDS011;27377;50.666;9.150;2022-11-20T08:36:11;48.72;;;27.13;;
41693;SDS011;27377;50.666;9.150;2022-11-20T08:38:36;47.05;;;27.38;;
41693;SDS011;27377;50.666;9.150;2022-11-20T08:41:03;50.22;;;27.58;;
41693;SDS011;27377;50.666;9.150;2022-11-20T08:44:02;52.35;;;28.60;;
41693;SDS011;27377;50.666;9.150;2022-11-20T08:46:33;49.85;;;27.25;;
41693;SDS011;27377;50.666;9.150;2022-11-20T08:49:02;51.05;;;28.15;;
41693;SDS011;27377;50.666;9.150;2022-11-20T08:51:32;50.45;;;28.17;;
41693;SDS011;27377;50.666;9.150;2022-11-20T08:53:59;51.22;;;28.50;;
41693;SDS011;27377;50.666;9.150;2022-11-20T08:56:25;52.78;;;28.98;;
41693;SDS011;27377;50.666;9.150;2022-11-20T08:58:51;49.03;;;27.52;;
41693;SDS011;27377;50.666;9.150;2022-11-20T09:01:17;55.90;;;29.95;;
41693;SDS011;27377;50.666;9.150;2022-11-20T09:03:46;55.53;;;29.20;;
41693;SDS011;27377;50.666;9.150;2022-11-20T09:06:12;54.03;;;30.07;;
41693;SDS011;27377;50.666;9.150;2022-11-20T09:08:38;55.72;;;29.13;;
41693;SDS011;27377;50.666;9.150;2022-11-20T09:11:06;56.60;;;28.77;;
41693;SDS011;27377;50.666;9.150;2022-11-20T09:13:33;55.03;;;30.05;;
41693;SDS011;27377;50.666;9.150;2022-11-20T09:16:04;57.25;;;29.60;;
41693;SDS011;27377;50.666;9.150;2022-11-20T09:18:32;59.03;;;30.08;;
41693;SDS011;27377;50.666;9.150;2022-11-20T09:21:01;59.67;;;31.25;;
41693;SDS011;27377;50.666;9.150;2022-11-20T09:23:33;55.80;;;29.83;;
41693;SDS011;27377;50.666;9.150;2022-11-20T09:26:18;57.50;;;30.33;;
41693;SDS011;27377;50.666;9.150;2022-11-20T09:28:44;55.10;;;29.50;;
41693;SDS011;27377;50.666;9.150;2022-11-20T09:31:28;55.23;;;29.17;;
41693;SDS011;27377;50.666;9.150;2022-11-20T09:33:54;54.47;;;29.30;;
41693;SDS011;27377;50.666;9.150;2022-11-20T09:36:19;54.33;;;27.75;;
41693;SDS011;27377;50.666;9.150;2022-11-20T09:38:45;54.58;;;28.85;;
41693;SDS011;27377;50.666;9.150;2022-11-20T09:44:12;46.05;;;25.23;;
41693;SDS011;27377;50.666;9.150;2022-11-20T09:47:07;44.47;;;24.50;;
41693;SDS011;27377;50.666;9.150;2022-11-20T09:55:13;39.28;;;22.05;;
41693;SDS011;27377;50.666;9.150;2022-11-20T09:57:44;37.10;;;21.40;;
41693;SDS011;27377;50.666;9.150;2022-11-20T10:00:13;37.17;;;21.33;;
41693;SDS011;27377;50.666;9.150;2022-11-20T10:07:47;35.80;;;21.00;;
41693;SDS011;27377;50.666;9.150;2022-11-20T10:10:35;38.55;;;21.95;;
41693;SDS011;27377;50.666;9.150;2022-11-20T10:16:19;35.85;;;21.48;;
41693;SDS011;27377;50.666;9.150;2022-11-20T10:19:11;34.65;;;20.23;;
41693;SDS011;27377;50.666;9.150;2022-11-20T10:30:31;33.80;;;20.45;;
41693;SDS011;27377;50.666;9.150;2022-11-20T10:33:06;32.35;;;19.30;;
41693;SDS011;27377;50.666;9.150;2022-11-20T10:35:44;35.28;;;20.38;;
41693;SDS011;27377;50.666;9.150;2022-11-20T10:38:23;36.38;;;20.90;;
41693;SDS011;27377;50.666;9.150;2022-11-20T10:40:55;37.15;;;20.65;;
41693;SDS011;27377;50.666;9.150;2022-11-20T10:43:42;38.63;;;21.90;;
41693;SDS011;27377;50.666;9.150;2022-11-20T10:46:14;37.25;;;21.27;;
41693;SDS011;27377;50.666;9.150;2022-11-20T10:48:47;37.20;;;21.80;;
41693;SDS011;27377;50.666;9.150;2022-11-20T10:54:38;34.38;;;19.75;;
41693;SDS011;27377;50.666;9.150;2022-11-20T10:57:24;32.08;;;19.13;;
41693;SDS011;27377;50.666;9.150;2022-11-20T11:00:10;31.40;;;18.50;;
41693;SDS011;27377;50.666;9.150;2022-11-20T11:02:42;31.83;;;18.80;;
41693;SDS011;27377;50.666;9.150;2022-11-20T11:05:14;26.77;;;16.50;;
41693;SDS011;27377;50.666;9.150;2022-11-20T11:07:42;27.08;;;16.38;;
41693;SDS011;27377;50.666;9.150;2022-11-20T11:10:18;26.75;;;16.60;;
41693;SDS011;27377;50.666;9.150;2022-11-20T11:12:47;26.10;;;16.25;;
41693;SDS011;27377;50.666;9.150;2022-11-20T11:15:26;23.83;;;15.50;;
41693;SDS011;27377;50.666;9.150;2022-11-20T11:18:01;24.05;;;15.50;;
41693;SDS011;27377;50.666;9.150;2022-11-20T11:20:27;24.50;;;15.20;;
41693;SDS011;27377;50.666;9.150;2022-11-20T11:22:57;24.97;;;15.57;;
41693;SDS011;27377;50.666;9.150;2022-11-20T11:27:57;24.60;;;14.35;;
41693;SDS011;27377;50.666;9.150;2022-11-20T11:30:24;24.35;;;15.63;;
41693;SDS011;27377;50.666;9.150;2022-11-20T11:33:02;24.73;;;16.33;;
41693;SDS011;27377;50.666;9.150;2022-11-20T11:35:29;26.55;;;16.33;;
41693;SDS011;27377;50.666;9.150;2022-11-20T11:38:02;24.07;;;15.13;;
41693;SDS011;27377;50.666;9.150;2022-11-20T11:40:31;23.90;;;15.13;;
41693;SDS011;27377;50.666;9.150;2022-11-20T11:42:59;23.13;;;15.00;;
41693;SDS011;27377;50.666;9.150;2022-11-20T11:45:27;23.98;;;15.27;;
41693;SDS011;27377;50.666;9.150;2022-11-20T11:47:53;23.17;;;14.93;;
41693;SDS011;27377;50.666;9.150;2022-11-20T11:50:22;26.77;;;16.15;;
41693;SDS011;27377;50.666;9.150;2022-11-20T11:52:58;26.10;;;16.03;;
41693;SDS011;27377;50.666;9.150;2022-11-20T11:58:33;25.00;;;15.40;;
41693;SDS011;27377;50.666;9.150;2022-11-20T12:01:18;24.90;;;14.67;;
41693;SDS011;27377;50.666;9.150;2022-11-20T12:04:05;21.97;;;14.33;;
41693;SDS011;27377;50.666;9.150;2022-11-20T12:06:43;23.85;;;14.52;;
41693;SDS011;27377;50.666;9.150;2022-11-20T12:09:12;22.27;;;14.27;;
41693;SDS011;27377;50.666;9.150;2022-11-20T12:14:19;21.63;;;14.05;;
41693;SDS011;27377;50.666;9.150;2022-11-20T12:16:49;22.40;;;14.63;;
41693;SDS011;27377;50.666;9.150;2022-11-20T12:19:17;23.92;;;15.32;;
41693;SDS011;27377;50.666;9.150;2022-11-20T12:24:32;22.92;;;14.40;;
41693;SDS011;27377;50.666;9.150;2022-11-20T12:30:24;20.67;;;13.68;;
41693;SDS011;27377;50.666;9.150;2022-11-20T12:50:17;18.63;;;12.57;;
41693;SDS011;27377;50.666;9.150;2022-11-20T13:01:56;17.92;;;12.10;;
41693;SDS011;27377;50.666;9.150;2022-11-20T13:07:20;19.58;;;12.48;;
41693;SDS011;27377;50.666;9.150;2022-11-20T13:09:49;20.00;;;12.90;;
41693;SDS011;27377;50.666;9.150;2022-11-20T13:12:29;19.10;;;12.88;;
41693;SDS011;27377;50.666;9.150;2022-11-20T13:17:44;18.60;;;12.27;;
41693;SDS011;27377;50.666;9.150;2022-11-20T13:20:24;20.55;;;13.13;;
41693;SDS011;27377;50.666;9.150;2022-11-20T13:22:51;23.33;;;14.70;;
41693;SDS011;27377;50.666;9.150;2022-11-20T13:25:32;22.63;;;14.48;;
41693;SDS011;27377;50.666;9.150;2022-11-20T13:30:34;22.20;;;13.67;;
41693;SDS011;27377;50.666;9.150;2022-11-20T13:35:32;19.52;;;12.95;;
41693;SDS011;27377;50.666;9.150;2022-11-20T13:38:20;20.13;;;13.02;;
41693;SDS011;27377;50.666;9.150;2022-11-20T13:43:21;19.83;;;13.20;;
41693;SDS011;27377;50.666;9.150;2022-11-20T13:46:03;20.42;;;13.27;;
41693;SDS011;27377;50.666;9.150;2022-11-20T13:48:42;21.43;;;14.20;;
41693;SDS011;27377;50.666;9.150;2022-11-20T13:59:11;20.00;;;12.93;;
41693;SDS011;27377;50.666;9.150;2022-11-20T14:01:46;19.77;;;12.98;;
41693;SDS011;27377;50.666;9.150;2022-11-20T14:04:18;19.40;;;12.80;;
41693;SDS011;27377;50.666;9.150;2022-11-20T14:06:50;21.75;;;13.50;;
41693;SDS011;27377;50.666;9.150;2022-11-20T14:09:29;21.98;;;14.85;;
41693;SDS011;27377;50.666;9.150;2022-11-20T14:11:57;21.58;;;14.32;;
41693;SDS011;27377;50.666;9.150;2022-11-20T14:14:23;20.10;;;13.60;;
41693;SDS011;27377;50.666;9.150;2022-11-20T14:17:04;20.33;;;13.60;;
41693;SDS011;27377;50.666;9.150;2022-11-20T14:20:02;21.88;;;15.13;;
41693;SDS011;27377;50.666;9.150;2022-11-20T14:22:30;22.60;;;14.70;;
41693;SDS011;27377;50.666;9.150;2022-11-20T14:27:43;19.02;;;12.70;;
41693;SDS011;27377;50.666;9.150;2022-11-20T14:30:18;19.40;;;12.30;;
41693;SDS011;27377;50.666;9.150;2022-11-20T14:33:01;19.15;;;12.93;;
41693;SDS011;27377;50.666;9.150;2022-11-20T14:35:33;19.70;;;13.25;;
41693;SDS011;27377;50.666;9.150;2022-11-20T14:38:02;20.27;;;13.40;;
41693;SDS011;27377;50.666;9.150;2022-11-20T14:40:32;20.93;;;13.67;;
41693;SDS011;27377;50.666;9.150;2022-11-20T14:43:01;21.23;;;14.18;;
41693;SDS011;27377;50.666;9.150;2022-11-20T14:45:41;20.10;;;13.63;;
41693;SDS011;27377;50.666;9.150;2022-11-20T14:48:08;22.45;;;15.00;;
41693;SDS011;27377;50.666;9.150;2022-11-20T14:50:38;24.13;;;15.10;;
41693;SDS011;27377;50.666;9.150;2022-11-20T14:53:04;28.52;;;16.73;;
41693;SDS011;27377;50.666;9.150;2022-11-20T14:57:59;28.88;;;16.77;;
41693;SDS011;27377;50.666;9.150;2022-11-20T15:00:52;39.25;;;20.30;;
41693;SDS011;27377;50.666;9.150;2022-11-20T15:03:23;29.73;;;17.23;;
41693;SDS011;27377;50.666;9.150;2022-11-20T15:05:55;25.40;;;15.98;;
41693;SDS011;27377;50.666;9.150;2022-11-20T15:08:21;25.13;;;15.43;;
41693;SDS011;27377;50.666;9.150;2022-11-20T15:10:50;21.77;;;14.43;;
41693;SDS011;27377;50.666;9.150;2022-11-20T15:13:20;21.73;;;14.13;;
41693;SDS011;27377;50.666;9.150;2022-11-20T15:15:52;22.08;;;14.02;;
41693;SDS011;27377;50.666;9.150;2022-11-20T15:18:21;21.38;;;13.95;;
41693;SDS011;27377;50.666;9.150;2022-11-20T15:20:55;19.67;;;13.57;;
41693;SDS011;27377;50.666;9.150;2022-11-20T15:23:23;19.88;;;13.20;;
41693;SDS011;27377;50.666;9.150;2022-11-20T15:25:50;19.20;;;12.87;;
41693;SDS011;27377;50.666;9.150;2022-11-20T15:28:24;20.02;;;13.13;;
41693;SDS011;27377;50.666;9.150;2022-11-20T15:30:55;19.93;;;13.53;;
41693;SDS011;27377;50.666;9.150;2022-11-20T15:33:21;21.58;;;13.43;;
41693;SDS011;27377;50.666;9.150;2022-11-20T15:35:47;19.33;;;13.37;;
41693;SDS011;27377;50.666;9.150;2022-11-20T15:38:12;19.45;;;12.75;;
41693;SDS011;27377;50.666;9.150;2022-11-20T15:40:38;19.00;;;12.93;;
41693;SDS011;27377;50.666;9.150;2022-11-20T15:43:04;20.13;;;12.98;;
41693;SDS011;27377;50.666;9.150;2022-11-20T15:45:34;19.38;;;12.88;;
41693;SDS011;27377;50.666;9.150;2022-11-20T15:48:13;21.27;;;13.73;;
41693;SDS011;27377;50.666;9.150;2022-11-20T15:51:05;20.88;;;14.25;;
41693;SDS011;27377;50.666;9.150;2022-11-20T15:53:40;22.13;;;14.38;;
41693;SDS011;27377;50.666;9.150;2022-11-20T15:56:11;21.23;;;14.27;;
41693;SDS011;27377;50.666;9.150;2022-11-20T15:58:38;22.27;;;14.57;;
41693;SDS011;27377;50.666;9.150;2022-11-20T16:01:08;23.43;;;14.80;;
41693;SDS011;27377;50.666;9.150;2022-11-20T16:03:35;20.83;;;13.95;;
41693;SDS011;27377;50.666;9.150;2022-11-20T16:06:01;22.90;;;14.80;;
41693;SDS011;27377;50.666;9.150;2022-11-20T16:08:27;21.50;;;14.02;;
41693;SDS011;27377;50.666;9.150;2022-11-20T16:10:52;21.42;;;14.40;;
41693;SDS011;27377;50.666;9.150;2022-11-20T16:13:18;21.40;;;13.77;;
41693;SDS011;27377;50.666;9.150;2022-11-20T16:16:11;21.77;;;13.60;;
41693;SDS011;27377;50.666;9.150;2022-11-20T16:18:53;24.67;;;15.10;;